createdAt,value
2018-08-24T00:02:12.202Z,16.50
2018-08-24T00:04:40.674Z,16.50
2018-08-24T00:07:09.163Z,16.50
2018-08-24T00:09:37.642Z,16.50
2018-08-24T00:12:06.256Z,16.50
2018-08-24T00:14:34.686Z,16.50
2018-08-24T00:17:03.194Z,16.50
2018-08-24T00:19:31.646Z,16.50
2018-08-24T00:22:00.078Z,16.50
2018-08-24T00:24:28.520Z,16.50
2018-08-24T00:26:56.947Z,16.50
2018-08-24T00:29:25.416Z,16.50
2018-08-24T00:31:53.912Z,16.50
2018-08-24T00:34:22.278Z,16.50
2018-08-24T00:36:50.781Z,16.50
2018-08-24T00:39:19.282Z,16.50
2018-08-24T00:41:47.746Z,16.50
2018-08-24T00:44:16.152Z,16.40
2018-08-24T00:46:44.646Z,16.40
2018-08-24T00:49:13.128Z,16.40
2018-08-24T00:51:41.656Z,16.40
2018-08-24T00:54:10.156Z,16.30
2018-08-24T00:56:38.652Z,16.30
2018-08-24T00:59:07.101Z,16.30
2018-08-24T01:01:35.578Z,16.30
2018-08-24T01:04:04.049Z,16.30
2018-08-24T01:06:32.513Z,16.20
2018-08-24T01:09:00.940Z,16.20
2018-08-24T01:12:32.309Z,16.20
2018-08-24T01:15:03.452Z,16.20
2018-08-24T01:17:37.425Z,16.20
2018-08-24T01:20:05.973Z,16.20
2018-08-24T01:22:34.427Z,16.20
2018-08-24T01:25:03.013Z,16.20
2018-08-24T01:27:31.467Z,16.20
2018-08-24T01:29:59.909Z,16.20
2018-08-24T01:32:28.343Z,16.20
2018-08-24T01:34:56.791Z,16.20
2018-08-24T01:37:25.257Z,16.20
2018-08-24T01:39:53.743Z,16.20
2018-08-24T01:42:22.197Z,16.20
2018-08-24T01:44:50.643Z,16.20
2018-08-24T01:47:19.089Z,16.20
2018-08-24T01:49:47.524Z,16.20
2018-08-24T01:52:15.986Z,16.20
2018-08-24T01:54:44.417Z,16.20
2018-08-24T01:57:12.868Z,16.20
2018-08-24T01:59:41.298Z,16.20
2018-08-24T02:02:09.742Z,16.20
2018-08-24T02:04:38.192Z,16.20
2018-08-24T02:07:06.674Z,16.20
2018-08-24T02:09:35.153Z,16.20
2018-08-24T02:12:03.666Z,16.20
2018-08-24T02:14:37.669Z,16.20
2018-08-24T02:17:10.378Z,16.20
2018-08-24T02:19:44.074Z,16.10
2018-08-24T02:22:18.280Z,16.10
2018-08-24T02:24:46.776Z,16.10
2018-08-24T02:27:15.253Z,16.10
2018-08-24T02:29:43.723Z,16.10
2018-08-24T02:32:12.164Z,16.00
2018-08-24T02:34:40.610Z,16.10
2018-08-24T02:37:09.073Z,16.10
2018-08-24T02:39:37.559Z,16.10
2018-08-24T02:42:06.051Z,16.20
2018-08-24T02:44:34.501Z,16.20
2018-08-24T02:47:02.951Z,16.20
2018-08-24T02:49:31.385Z,16.20
2018-08-24T02:51:59.846Z,16.20
2018-08-24T02:54:28.355Z,16.20
2018-08-24T02:56:56.776Z,16.20
2018-08-24T02:59:25.235Z,16.20
2018-08-24T03:01:53.734Z,16.20
2018-08-24T03:04:22.217Z,16.20
2018-08-24T03:06:50.683Z,16.20
2018-08-24T03:09:19.173Z,16.20
2018-08-24T03:11:47.637Z,16.10
2018-08-24T03:14:16.070Z,16.20
2018-08-24T03:16:49.789Z,16.20
2018-08-24T03:19:18.249Z,16.20
2018-08-24T03:21:46.707Z,16.30
2018-08-24T03:24:15.171Z,16.20
2018-08-24T03:26:43.613Z,16.30
2018-08-24T03:29:12.049Z,16.30
2018-08-24T03:31:40.476Z,16.30
2018-08-24T03:34:08.949Z,16.30
2018-08-24T03:36:37.380Z,16.30
2018-08-24T03:39:07.759Z,16.30
2018-08-24T03:41:36.246Z,16.30
2018-08-24T03:44:04.955Z,16.30
2018-08-24T03:46:33.407Z,16.20
2018-08-24T03:49:01.867Z,16.10
2018-08-24T03:51:30.396Z,16.10
2018-08-24T03:53:58.882Z,16.10
2018-08-24T03:56:27.376Z,16.10
2018-08-24T03:58:55.826Z,16.10
2018-08-24T04:01:24.340Z,16.20
2018-08-24T04:03:52.766Z,16.20
2018-08-24T04:06:21.230Z,16.20
2018-08-24T04:08:49.640Z,16.20
2018-08-24T04:11:18.062Z,16.20
2018-08-24T04:13:46.497Z,16.20
2018-08-24T04:16:14.953Z,16.20
2018-08-24T04:18:43.424Z,16.20
2018-08-24T04:21:11.893Z,16.20
2018-08-24T04:23:40.323Z,16.20
2018-08-24T04:26:08.764Z,16.20
2018-08-24T04:28:37.209Z,16.20
2018-08-24T04:31:05.735Z,16.20
2018-08-24T04:33:34.177Z,16.20
2018-08-24T04:36:02.605Z,16.10
2018-08-24T04:38:31.075Z,16.00
2018-08-24T04:40:59.547Z,16.00
2018-08-24T04:43:27.988Z,15.90
2018-08-24T04:45:56.439Z,15.80
2018-08-24T04:48:24.869Z,15.80
2018-08-24T04:50:53.325Z,15.70
2018-08-24T04:53:21.826Z,15.70
2018-08-24T04:55:50.262Z,15.60
2018-08-24T04:58:18.826Z,15.60
2018-08-24T05:00:47.240Z,15.50
2018-08-24T05:03:15.677Z,15.40
2018-08-24T05:05:44.194Z,15.30
2018-08-24T05:08:12.598Z,15.30
2018-08-24T05:10:41.052Z,15.20
2018-08-24T05:13:09.539Z,15.10
2018-08-24T05:15:37.982Z,15.10
2018-08-24T05:18:06.460Z,15.00
2018-08-24T05:20:34.902Z,15.00
2018-08-24T05:23:09.092Z,15.00
2018-08-24T05:25:37.622Z,14.90
2018-08-24T05:28:06.211Z,14.90
2018-08-24T05:30:34.668Z,15.10
2018-08-24T05:33:03.112Z,15.20
2018-08-24T05:35:31.607Z,15.30
2018-08-24T05:38:01.928Z,15.40
2018-08-24T05:40:32.190Z,15.50
2018-08-24T05:43:01.304Z,15.60
2018-08-24T05:45:38.734Z,15.60
2018-08-24T05:48:07.354Z,15.60
2018-08-24T05:50:35.912Z,15.50
2018-08-24T05:53:05.550Z,15.40
2018-08-24T05:55:34.173Z,15.30
2018-08-24T05:58:02.583Z,15.30
2018-08-24T06:00:37.281Z,15.30
2018-08-24T06:03:06.292Z,15.30
2018-08-24T06:05:34.757Z,15.40
2018-08-24T06:08:03.400Z,15.50
2018-08-24T06:10:32.522Z,15.60
2018-08-24T06:13:08.337Z,15.60
2018-08-24T06:15:36.850Z,15.70
2018-08-24T06:18:18.241Z,15.70
2018-08-24T06:20:47.008Z,15.80
2018-08-24T06:23:15.708Z,15.80
2018-08-24T06:25:44.514Z,15.90
2018-08-24T06:28:13.427Z,16.00
2018-08-24T06:30:41.893Z,16.10
2018-08-24T06:33:10.372Z,16.30
2018-08-24T06:35:38.829Z,16.40
2018-08-24T06:38:07.352Z,16.50
2018-08-24T06:40:35.792Z,16.70
2018-08-24T06:43:04.272Z,16.90
2018-08-24T06:45:32.702Z,17.00
2018-08-24T06:48:01.130Z,17.40
2018-08-24T06:50:29.683Z,17.80
2018-08-24T06:52:58.213Z,18.30
2018-08-24T06:55:26.695Z,19.00
2018-08-24T06:57:55.164Z,19.50
2018-08-24T07:00:29.097Z,20.00
2018-08-24T07:02:57.597Z,20.30
2018-08-24T07:05:26.139Z,21.00
2018-08-24T07:07:54.887Z,21.40
2018-08-24T07:10:23.603Z,21.40
2018-08-24T07:12:52.253Z,21.50
2018-08-24T07:15:20.785Z,21.80
2018-08-24T07:17:54.715Z,22.30
2018-08-24T07:20:23.235Z,22.30
2018-08-24T07:22:51.716Z,22.10
2018-08-24T07:25:20.203Z,22.30
2018-08-24T07:27:48.713Z,22.40
2018-08-24T07:30:17.359Z,22.60
2018-08-24T07:32:45.853Z,22.90
2018-08-24T07:35:14.567Z,23.20
2018-08-24T07:37:43.137Z,23.20
2018-08-24T07:40:11.639Z,23.10
2018-08-24T07:42:40.253Z,23.60
2018-08-24T07:45:08.808Z,24.00
2018-08-24T07:47:37.337Z,22.20
2018-08-24T07:50:06.073Z,20.50
2018-08-24T07:52:34.507Z,19.80
2018-08-24T07:55:02.989Z,19.90
2018-08-24T07:57:31.447Z,21.30
2018-08-24T07:59:59.927Z,22.50
2018-08-24T08:02:33.703Z,23.40
2018-08-24T08:05:02.245Z,24.00
2018-08-24T08:07:30.717Z,23.10
2018-08-24T08:09:59.201Z,22.60
2018-08-24T08:12:27.746Z,22.80
2018-08-24T08:15:01.553Z,23.30
2018-08-24T08:17:30.034Z,23.40
2018-08-24T08:19:58.571Z,22.30
2018-08-24T08:22:27.030Z,22.00
2018-08-24T08:24:55.483Z,22.70
2018-08-24T08:27:23.929Z,22.70
2018-08-24T08:29:58.515Z,21.90
2018-08-24T08:32:27.598Z,22.90
2018-08-24T08:34:56.070Z,24.20
2018-08-24T08:37:24.847Z,25.10
2018-08-24T08:39:58.306Z,24.80
2018-08-24T08:42:27.076Z,23.90
2018-08-24T08:44:55.545Z,24.90
2018-08-24T08:47:24.077Z,26.20
2018-08-24T08:49:55.533Z,25.60
2018-08-24T08:52:24.024Z,25.70
2018-08-24T08:54:52.711Z,23.00
2018-08-24T08:57:21.405Z,21.30
2018-08-24T08:59:49.894Z,21.30
2018-08-24T09:02:18.353Z,20.70
2018-08-24T09:04:46.829Z,20.00
2018-08-24T09:07:15.427Z,19.80
2018-08-24T09:09:43.904Z,21.80
2018-08-24T09:12:12.381Z,23.80
2018-08-24T09:14:41.467Z,23.70
2018-08-24T09:18:19.133Z,24.70
2018-08-24T09:20:53.027Z,23.20
2018-08-24T09:23:26.890Z,21.30
2018-08-24T09:26:00.579Z,20.20
2018-08-24T09:28:37.371Z,21.20
2018-08-24T09:31:13.563Z,24.00
2018-08-24T09:33:42.028Z,23.70
2018-08-24T09:36:15.781Z,22.20
2018-08-24T09:38:44.261Z,20.90
2018-08-24T09:41:12.790Z,21.60
2018-08-24T09:43:46.709Z,24.20
2018-08-24T09:46:15.226Z,25.80
2018-08-24T09:48:49.016Z,27.10
2018-08-24T09:51:22.780Z,27.90
2018-08-24T09:53:56.561Z,28.70
2018-08-24T09:56:25.091Z,29.20
2018-08-24T09:58:53.652Z,29.20
2018-08-24T10:01:27.577Z,29.70
2018-08-24T10:04:01.566Z,29.40
2018-08-24T10:06:35.381Z,29.00
2018-08-24T10:09:05.983Z,28.90
2018-08-24T10:11:34.571Z,26.70
2018-08-24T10:14:03.144Z,26.10
2018-08-24T10:16:31.616Z,25.80
2018-08-24T10:19:00.232Z,24.90
2018-08-24T10:21:28.898Z,26.60
2018-08-24T10:23:57.454Z,26.80
2018-08-24T10:26:26.156Z,28.10
2018-08-24T10:28:54.683Z,28.70
2018-08-24T10:31:23.150Z,26.50
2018-08-24T10:33:51.618Z,24.70
2018-08-24T10:36:20.121Z,26.10
2018-08-24T10:38:48.615Z,26.00
2018-08-24T10:41:17.173Z,24.80
2018-08-24T10:43:45.690Z,23.40
2018-08-24T10:46:14.218Z,23.80
2018-08-24T10:48:42.831Z,26.70
2018-08-24T10:51:11.484Z,25.70
2018-08-24T10:53:40.293Z,27.30
2018-08-24T10:56:08.835Z,26.40
2018-08-24T10:58:37.411Z,25.90
2018-08-24T11:01:06.119Z,25.00
2018-08-24T11:03:34.961Z,26.40
2018-08-24T11:06:03.481Z,26.30
2018-08-24T11:08:32.171Z,26.30
2018-08-24T11:11:00.694Z,25.40
2018-08-24T11:13:29.200Z,23.80
2018-08-24T11:15:57.710Z,22.40
2018-08-24T11:18:26.215Z,21.80
2018-08-24T11:20:54.820Z,21.60
2018-08-24T11:23:23.348Z,21.30
2018-08-24T11:25:51.892Z,21.10
2018-08-24T11:28:20.393Z,21.00
2018-08-24T11:30:48.963Z,22.30
2018-08-24T11:33:17.521Z,23.60
2018-08-24T11:35:46.069Z,24.10
2018-08-24T11:38:14.550Z,23.40
2018-08-24T11:40:43.077Z,22.80
2018-08-24T11:43:11.549Z,23.30
2018-08-24T11:45:40.053Z,23.90
2018-08-24T11:48:08.539Z,23.60
2018-08-24T11:50:36.995Z,24.90
2018-08-24T11:53:05.462Z,25.20
2018-08-24T11:55:33.902Z,25.50
2018-08-24T11:58:03.064Z,25.80
2018-08-24T12:00:32.873Z,25.70
2018-08-24T12:03:02.285Z,25.90
2018-08-24T12:05:31.392Z,25.90
2018-08-24T12:08:00.003Z,26.10
2018-08-24T12:10:28.355Z,26.00
2018-08-24T12:12:57.652Z,24.60
2018-08-24T12:15:26.122Z,24.00
2018-08-24T12:17:54.798Z,24.30
2018-08-24T12:20:23.293Z,24.10
2018-08-24T12:22:51.861Z,23.50
2018-08-24T12:25:20.436Z,23.60
2018-08-24T12:27:48.928Z,23.40
2018-08-24T12:30:17.397Z,23.80
2018-08-24T12:32:45.864Z,24.10
2018-08-24T12:35:14.314Z,23.90
2018-08-24T12:37:44.304Z,23.40
2018-08-24T12:40:13.284Z,22.70
2018-08-24T12:42:41.761Z,22.10
2018-08-24T12:45:10.278Z,21.90
2018-08-24T12:47:38.832Z,22.50
2018-08-24T12:50:07.972Z,22.80
2018-08-24T12:52:36.444Z,23.20
2018-08-24T12:55:05.104Z,22.70
2018-08-24T12:57:33.615Z,22.30
2018-08-24T13:00:02.258Z,22.10
2018-08-24T13:02:30.750Z,22.10
2018-08-24T13:04:59.229Z,22.30
2018-08-24T13:07:27.747Z,22.70
2018-08-24T13:09:56.224Z,22.60
2018-08-24T13:12:24.707Z,23.10
2018-08-24T13:14:53.179Z,23.80
2018-08-24T13:17:21.660Z,24.30
2018-08-24T13:19:50.142Z,24.10
2018-08-24T13:22:18.641Z,23.50
2018-08-24T13:24:47.108Z,23.10
2018-08-24T13:27:15.609Z,22.80
2018-08-24T13:29:44.059Z,22.30
2018-08-24T13:32:12.565Z,22.50
2018-08-24T13:34:41.048Z,23.00
2018-08-24T13:37:09.564Z,23.40
2018-08-24T13:39:38.018Z,23.80
2018-08-24T13:42:06.529Z,23.60
2018-08-24T13:44:35.066Z,22.90
2018-08-24T13:47:03.514Z,22.60
2018-08-24T13:49:31.985Z,22.60
2018-08-24T13:52:00.517Z,22.50
2018-08-24T13:54:28.947Z,22.50
2018-08-24T13:56:57.426Z,22.30
2018-08-24T13:59:25.891Z,22.30
2018-08-24T14:01:54.314Z,22.30
2018-08-24T14:04:22.813Z,22.50
2018-08-24T14:06:51.264Z,22.20
2018-08-24T14:09:19.716Z,22.10
2018-08-24T14:11:48.213Z,22.20
2018-08-24T14:14:16.626Z,22.10
2018-08-24T14:16:45.050Z,22.20
2018-08-24T14:19:13.468Z,22.20
2018-08-24T14:21:41.960Z,22.00
2018-08-24T14:24:10.440Z,21.70
2018-08-24T14:26:38.961Z,21.60
2018-08-24T14:29:07.432Z,21.80
2018-08-24T14:31:35.981Z,21.90
2018-08-24T14:34:04.452Z,22.00
2018-08-24T14:36:33.759Z,21.90
2018-08-24T14:39:02.287Z,21.90
2018-08-24T14:41:30.743Z,23.30
2018-08-24T14:43:59.283Z,24.90
2018-08-24T14:46:27.797Z,26.00
2018-08-24T14:48:56.259Z,26.70
2018-08-24T14:51:24.749Z,27.50
2018-08-24T14:53:53.225Z,27.20
2018-08-24T14:56:21.677Z,26.80
2018-08-24T14:58:50.159Z,26.10
2018-08-24T15:01:18.664Z,25.20
2018-08-24T15:03:47.146Z,23.50
2018-08-24T15:06:15.592Z,22.80
2018-08-24T15:08:44.089Z,22.40
2018-08-24T15:11:12.551Z,22.10
2018-08-24T15:13:41.053Z,21.90
2018-08-24T15:16:09.611Z,21.80
2018-08-24T15:18:38.146Z,21.70
2018-08-24T15:21:06.834Z,21.60
2018-08-24T15:23:35.391Z,21.30
2018-08-24T15:26:03.890Z,21.40
2018-08-24T15:28:32.462Z,21.40
2018-08-24T15:31:01.500Z,21.50
2018-08-24T15:33:30.226Z,21.70
2018-08-24T15:35:58.959Z,21.90
2018-08-24T15:38:27.477Z,21.70
2018-08-24T15:40:56.043Z,21.10
2018-08-24T15:43:24.586Z,21.00
2018-08-24T15:45:53.165Z,20.80
2018-08-24T15:48:21.653Z,20.50
2018-08-24T15:50:50.204Z,20.20
2018-08-24T15:53:18.714Z,20.20
2018-08-24T15:55:47.186Z,20.00
2018-08-24T15:58:15.719Z,20.00
2018-08-24T16:00:44.295Z,20.00
2018-08-24T16:03:12.818Z,20.20
2018-08-24T16:05:41.290Z,20.30
2018-08-24T16:08:09.834Z,20.40
2018-08-24T16:10:38.335Z,20.40
2018-08-24T16:13:06.905Z,20.40
2018-08-24T16:15:35.416Z,20.30
2018-08-24T16:18:09.229Z,20.20
2018-08-24T16:20:37.783Z,20.10
2018-08-24T16:23:06.643Z,20.10
2018-08-24T16:25:35.181Z,19.90
2018-08-24T16:28:03.681Z,19.80
2018-08-24T16:30:32.198Z,19.50
2018-08-24T16:33:00.682Z,19.40
2018-08-24T16:35:29.133Z,19.30
2018-08-24T16:37:57.674Z,19.20
2018-08-24T16:40:26.237Z,19.20
2018-08-24T16:42:54.745Z,19.40
2018-08-24T16:45:23.892Z,19.70
2018-08-24T16:47:52.388Z,19.80
2018-08-24T16:50:21.870Z,19.70
2018-08-24T16:52:50.350Z,19.60
2018-08-24T16:55:18.942Z,19.50
2018-08-24T16:57:48.502Z,19.50
2018-08-24T17:00:17.021Z,19.40
2018-08-24T17:02:45.498Z,19.30
2018-08-24T17:05:14.101Z,19.00
2018-08-24T17:07:44.502Z,19.00
2018-08-24T17:10:13.082Z,18.90
2018-08-24T17:12:41.550Z,18.90
2018-08-24T17:15:10.070Z,19.00
2018-08-24T17:17:38.532Z,19.00
2018-08-24T17:20:07.027Z,19.00
2018-08-24T17:22:35.494Z,18.90
2018-08-24T17:25:04.018Z,18.80
2018-08-24T17:27:32.459Z,18.60
2018-08-24T17:30:00.957Z,18.50
2018-08-24T17:32:29.455Z,18.30
2018-08-24T17:34:57.916Z,18.20
2018-08-24T17:37:26.389Z,18.10
2018-08-24T17:39:54.833Z,18.00
2018-08-24T17:42:23.263Z,17.90
2018-08-24T17:44:51.721Z,17.80
2018-08-24T17:47:20.189Z,17.70
2018-08-24T17:49:48.683Z,17.70
2018-08-24T17:52:17.152Z,17.60
2018-08-24T17:54:45.631Z,17.50
2018-08-24T17:57:14.081Z,17.50
2018-08-24T17:59:42.652Z,17.40
2018-08-24T18:02:11.179Z,17.30
2018-08-24T18:04:39.665Z,17.30
2018-08-24T18:07:08.755Z,17.20
2018-08-24T18:09:37.201Z,17.10
2018-08-24T18:12:05.753Z,17.10
2018-08-24T18:14:34.229Z,17.00
2018-08-24T18:17:02.720Z,16.90
2018-08-24T18:19:31.269Z,16.80
2018-08-24T18:21:59.736Z,16.80
2018-08-24T18:24:28.234Z,16.70
2018-08-24T18:26:56.707Z,16.70
2018-08-24T18:29:25.230Z,16.70
2018-08-24T18:31:53.697Z,16.70
2018-08-24T18:34:22.142Z,16.70
2018-08-24T18:36:50.589Z,16.70
2018-08-24T18:39:19.060Z,16.70
2018-08-24T18:41:47.502Z,16.60
2018-08-24T18:44:16.002Z,16.60
2018-08-24T18:46:44.466Z,16.60
2018-08-24T18:49:12.958Z,16.60
2018-08-24T18:51:41.500Z,16.50
2018-08-24T18:54:09.986Z,16.50
2018-08-24T18:56:38.554Z,16.40
2018-08-24T18:59:07.059Z,16.40
2018-08-24T19:01:35.572Z,16.40
2018-08-24T19:04:04.065Z,16.30
2018-08-24T19:06:32.540Z,16.30
2018-08-24T19:09:00.988Z,16.30
2018-08-24T19:11:34.717Z,16.30
2018-08-24T19:14:03.250Z,16.30
2018-08-24T19:16:31.736Z,16.20
2018-08-24T19:19:05.623Z,16.20
2018-08-24T19:21:39.451Z,16.20
2018-08-24T19:24:07.949Z,16.10
2018-08-24T19:26:36.485Z,16.10
2018-08-24T19:29:10.378Z,16.10
2018-08-24T19:31:38.862Z,16.10
2018-08-24T19:34:07.483Z,16.00
2018-08-24T19:36:35.963Z,16.00
2018-08-24T19:39:06.830Z,16.00
2018-08-24T19:41:40.457Z,16.10
2018-08-24T19:44:08.969Z,16.00
2018-08-24T19:46:37.453Z,16.00
2018-08-24T19:49:11.716Z,16.10
2018-08-24T19:51:40.297Z,16.00
2018-08-24T19:54:08.855Z,16.00
2018-08-24T19:56:37.593Z,16.00
2018-08-24T19:59:07.805Z,16.00
2018-08-24T20:01:36.295Z,16.00
2018-08-24T20:04:05.674Z,16.00
2018-08-24T20:06:39.700Z,15.90
2018-08-24T20:09:17.351Z,15.90
2018-08-24T20:11:48.622Z,15.80
2018-08-24T20:14:21.318Z,15.70
2018-08-24T20:16:55.431Z,15.60
2018-08-24T20:19:23.931Z,15.50
2018-08-24T20:21:52.385Z,15.50
2018-08-24T20:24:21.054Z,15.40
2018-08-24T20:26:49.961Z,15.40
2018-08-24T20:29:19.012Z,15.30
2018-08-24T20:31:47.506Z,15.30
2018-08-24T20:34:16.032Z,15.30
2018-08-24T20:36:44.804Z,15.20
2018-08-24T20:39:13.250Z,15.20
2018-08-24T20:41:41.949Z,15.20
2018-08-24T20:44:10.430Z,15.20
2018-08-24T20:46:38.902Z,15.20
2018-08-24T20:49:07.368Z,15.20
2018-08-24T20:51:35.834Z,15.20
2018-08-24T20:54:04.324Z,15.20
2018-08-24T20:56:32.811Z,15.10
2018-08-24T20:59:01.304Z,15.10
2018-08-24T21:01:29.768Z,14.90
2018-08-24T21:03:58.254Z,14.80
2018-08-24T21:06:26.711Z,14.80
2018-08-24T21:08:55.313Z,14.70
2018-08-24T21:11:23.777Z,14.60
2018-08-24T21:13:52.508Z,14.60
2018-08-24T21:16:21.014Z,14.60
2018-08-24T21:18:49.454Z,14.60
2018-08-24T21:21:17.956Z,14.60
2018-08-24T21:23:46.434Z,14.60
2018-08-24T21:26:14.917Z,14.50
2018-08-24T21:28:43.413Z,14.50
2018-08-24T21:31:11.876Z,14.50
2018-08-24T21:33:40.379Z,14.50
2018-08-24T21:36:08.821Z,14.50
2018-08-24T21:38:37.355Z,14.40
2018-08-24T21:41:05.819Z,14.20
2018-08-24T21:43:34.231Z,14.10
2018-08-24T21:46:02.751Z,14.00
2018-08-24T21:48:31.149Z,13.90
2018-08-24T21:50:59.597Z,13.80
2018-08-24T21:53:28.035Z,13.80
2018-08-24T21:55:56.473Z,13.80
2018-08-24T21:58:24.931Z,13.80
2018-08-24T22:00:53.408Z,13.70
2018-08-24T22:03:21.867Z,13.70
2018-08-24T22:05:50.341Z,13.70
2018-08-24T22:08:18.851Z,13.60
2018-08-24T22:10:47.366Z,13.60
2018-08-24T22:13:15.803Z,13.60
2018-08-24T22:15:44.262Z,13.50
2018-08-24T22:18:12.718Z,13.40
2018-08-24T22:20:41.204Z,13.30
2018-08-24T22:23:09.634Z,13.30
2018-08-24T22:25:38.108Z,13.30
2018-08-24T22:28:06.560Z,13.20
2018-08-24T22:30:35.012Z,13.20
2018-08-24T22:33:03.474Z,13.20
2018-08-24T22:35:31.953Z,13.20
2018-08-24T22:38:00.424Z,13.30
2018-08-24T22:40:28.879Z,13.30
2018-08-24T22:42:57.363Z,13.30
2018-08-24T22:45:25.829Z,13.20
2018-08-24T22:47:54.419Z,13.20
2018-08-24T22:50:23.111Z,13.20
2018-08-24T22:52:51.617Z,13.20
2018-08-24T22:55:20.050Z,13.20
2018-08-24T22:57:48.537Z,13.20
2018-08-24T23:00:17.039Z,13.20
2018-08-24T23:02:45.500Z,13.10
2018-08-24T23:05:13.995Z,13.10
2018-08-24T23:07:42.492Z,13.10
2018-08-24T23:10:10.925Z,13.00
2018-08-24T23:12:39.383Z,13.00
2018-08-24T23:15:07.847Z,13.10
2018-08-24T23:17:36.350Z,13.00
2018-08-24T23:20:04.853Z,13.00
2018-08-24T23:22:33.298Z,13.00
2018-08-24T23:25:01.774Z,13.00
2018-08-24T23:27:30.282Z,13.10
2018-08-24T23:29:58.725Z,13.10
2018-08-24T23:32:27.174Z,13.00
2018-08-24T23:34:55.612Z,13.10
2018-08-24T23:37:24.110Z,13.00
2018-08-24T23:39:52.576Z,13.00
2018-08-24T23:42:21.022Z,13.00
2018-08-24T23:44:49.465Z,13.00
2018-08-24T23:47:17.947Z,12.90
2018-08-24T23:49:46.480Z,12.90
2018-08-24T23:52:14.908Z,13.00
2018-08-24T23:54:43.356Z,12.90
2018-08-24T23:57:11.805Z,12.90
2018-08-24T23:59:40.240Z,12.90
